Time;durP1;ratioP1;P1;durP2;ratioP2;P2;SDS_P1;SDS_P2;PMS_P1;PMS_P2;Temp;Humidity;BMP_temperature;BMP_pressure;BME280_temperature;BME280_humidity;BME280_pressure;Samples;Min_cycle;Max_cycle;Signal;HPM_P1;HPM_P2
2022/12/04 00:01:14;;;;;;;55.80;35.88;;;0.70;99.90;;;;;;4998899;28;90023;-31
2022/12/04 00:03:41;;;;;;;57.13;37.75;;;0.70;99.90;;;;;;4998203;28;88574;-33
2022/12/04 00:06:10;;;;;;;46.20;29.15;;;0.70;99.90;;;;;;4998126;28;89971;-32
2022/12/04 00:08:36;;;;;;;59.28;35.58;;;0.70;99.90;;;;;;4998691;28;89290;-30
2022/12/04 00:11:06;;;;;;;54.75;37.58;;;0.60;99.90;;;;;;4998555;28;89623;-32
2022/12/04 00:13:32;;;;;;;49.95;30.35;;;0.70;99.90;;;;;;4998472;28;89640;-30
2022/12/04 00:15:58;;;;;;;58.63;36.20;;;0.80;99.90;;;;;;4998254;28;90333;-31
2022/12/04 00:18:24;;;;;;;57.03;35.92;;;0.70;99.90;;;;;;4997972;28;90161;-33
2022/12/04 00:20:50;;;;;;;52.83;35.58;;;0.70;99.90;;;;;;4998763;28;89697;-31
2022/12/04 00:23:15;;;;;;;60.15;39.35;;;0.70;99.90;;;;;;4998151;28;92111;-31
2022/12/04 00:25:41;;;;;;;50.00;36.10;;;0.70;99.90;;;;;;4998542;28;90269;-32
2022/12/04 00:28:07;;;;;;;55.70;34.35;;;0.70;99.90;;;;;;4998237;28;89436;-29
2022/12/04 00:30:33;;;;;;;64.53;37.83;;;0.60;99.90;;;;;;4997727;28;88677;-32
2022/12/04 00:32:58;;;;;;;57.97;40.22;;;0.70;99.90;;;;;;4999090;28;89456;-32
2022/12/04 00:35:24;;;;;;;52.42;35.50;;;0.70;99.90;;;;;;4998099;28;89357;-32
2022/12/04 00:37:50;;;;;;;44.78;29.55;;;0.70;99.90;;;;;;4998635;28;89422;-31
2022/12/04 00:40:16;;;;;;;57.42;38.22;;;0.60;99.90;;;;;;4997894;28;91154;-33
2022/12/04 00:42:41;;;;;;;56.30;36.95;;;0.60;99.90;;;;;;4998129;28;90411;-31
2022/12/04 00:45:07;;;;;;;59.72;34.67;;;0.60;99.90;;;;;;4999209;28;90181;-32
2022/12/04 00:47:33;;;;;;;40.42;29.80;;;0.70;99.90;;;;;;4997306;28;90669;-30
2022/12/04 00:49:58;;;;;;;50.55;29.45;;;0.70;99.90;;;;;;4998024;28;90457;-30
2022/12/04 00:52:24;;;;;;;49.03;26.83;;;0.80;99.90;;;;;;4996954;28;88273;-32
2022/12/04 00:54:49;;;;;;;59.20;37.30;;;0.70;99.90;;;;;;4998422;28;89961;-31
2022/12/04 00:57:15;;;;;;;53.00;34.33;;;0.60;99.90;;;;;;4997899;28;89803;-33
2022/12/04 00:59:41;;;;;;;43.50;28.08;;;0.70;99.90;;;;;;4997915;28;90276;-31
2022/12/04 01:02:06;;;;;;;56.65;38.15;;;0.70;99.90;;;;;;4997459;28;88648;-31
2022/12/04 01:04:32;;;;;;;48.55;32.97;;;0.70;99.90;;;;;;5000905;28;90687;-31
2022/12/04 01:06:57;;;;;;;53.55;32.08;;;0.70;99.90;;;;;;5001430;28;89377;-31
2022/12/04 01:09:23;;;;;;;53.78;33.08;;;0.70;99.90;;;;;;5001529;28;89918;-33
2022/12/04 01:11:48;;;;;;;59.38;38.63;;;0.70;99.90;;;;;;5000855;28;89397;-31
2022/12/04 01:14:14;;;;;;;66.03;40.95;;;0.60;99.90;;;;;;5000851;28;92017;-30
2022/12/04 01:16:40;;;;;;;55.75;33.95;;;0.60;99.90;;;;;;5000918;28;89905;-32
2022/12/04 01:19:09;;;;;;;53.50;35.72;;;0.70;99.90;;;;;;5001483;28;89245;-31
2022/12/04 01:21:35;;;;;;;59.85;37.03;;;0.70;99.90;;;;;;4982931;28;89017;-32
2022/12/04 01:24:01;;;;;;;56.38;33.15;;;0.60;99.90;;;;;;5000440;28;89277;-31
2022/12/04 01:26:27;;;;;;;53.88;35.55;;;0.60;99.90;;;;;;5000731;28;89628;-31
2022/12/04 01:28:53;;;;;;;64.60;38.88;;;0.60;99.90;;;;;;5001025;28;89029;-33
2022/12/04 01:31:20;;;;;;;67.72;38.63;;;0.70;99.90;;;;;;4982775;28;88687;-31
2022/12/04 01:33:46;;;;;;;63.30;40.38;;;0.70;99.90;;;;;;5001374;28;90273;-33
2022/12/04 01:36:18;;;;;;;59.63;39.20;;;0.70;99.90;;;;;;4999961;28;90703;-31
2022/12/04 01:38:44;;;;;;;63.63;41.83;;;0.60;99.90;;;;;;5000693;28;90544;-31
2022/12/04 01:41:12;;;;;;;54.83;38.22;;;0.60;99.90;;;;;;5000490;28;89312;-31
2022/12/04 01:43:38;;;;;;;53.20;39.47;;;0.50;99.90;;;;;;5000217;28;89765;-31
2022/12/04 01:46:05;;;;;;;53.85;35.33;;;0.60;99.90;;;;;;5001320;28;89004;-32
2022/12/04 01:48:36;;;;;;;58.10;38.80;;;0.70;99.90;;;;;;5000204;28;89851;-30
2022/12/04 01:51:24;;;;;;;55.10;34.13;;;0.70;99.90;;;;;;5000556;28;88115;-31
2022/12/04 01:53:53;;;;;;;62.15;35.63;;;0.60;99.90;;;;;;5000922;28;90355;-31
2022/12/04 01:56:25;;;;;;;56.00;36.55;;;0.60;99.90;;;;;;5000523;28;90921;-32
2022/12/04 01:58:55;;;;;;;60.30;32.47;;;0.60;99.90;;;;;;5000828;28;89652;-29
2022/12/04 02:01:21;;;;;;;53.65;34.05;;;0.70;99.90;;;;;;5000214;28;90388;-30
2022/12/04 02:03:47;;;;;;;51.13;31.77;;;0.70;99.90;;;;;;5000275;28;89155;-31
2022/12/04 02:06:13;;;;;;;57.17;38.90;;;0.70;99.90;;;;;;5000400;28;90000;-29
2022/12/04 02:08:39;;;;;;;62.92;39.78;;;0.60;99.90;;;;;;5000805;28;91154;-32
2022/12/04 02:11:16;;;;;;;54.40;35.05;;;0.70;99.90;;;;;;5000191;28;87644;-31
2022/12/04 02:14:06;;;;;;;51.00;32.80;;;0.60;99.90;;;;;;4999664;28;90100;-31
2022/12/04 02:16:49;;;;;;;59.28;39.20;;;0.60;99.90;;;;;;4999394;28;89843;-31
2022/12/04 02:19:28;;;;;;;49.75;31.52;;;0.60;99.90;;;;;;5000488;28;90860;-31
2022/12/04 02:21:58;;;;;;;51.95;34.33;;;0.60;99.90;;;;;;5000931;28;89400;-30
2022/12/04 02:24:50;;;;;;;57.28;36.55;;;0.60;99.90;;;;;;5000080;28;90478;-37
2022/12/04 02:27:39;;;;;;;47.25;33.60;;;0.60;99.90;;;;;;4999618;28;90786;-31
2022/12/04 02:30:08;;;;;;;59.58;41.88;;;0.60;99.90;;;;;;4985813;28;90569;-34
2022/12/04 02:32:49;;;;;;;62.15;39.08;;;0.60;99.90;;;;;;5000385;28;89602;-33
2022/12/04 02:35:28;;;;;;;60.92;37.75;;;0.60;99.90;;;;;;4999711;28;90216;-31
2022/12/04 02:38:11;;;;;;;55.63;32.20;;;0.70;99.90;;;;;;4999514;28;90033;-33
2022/12/04 02:40:47;;;;;;;59.05;38.50;;;0.70;99.90;;;;;;4999760;28;90145;-32
2022/12/04 02:43:41;;;;;;;61.00;36.53;;;0.60;99.90;;;;;;4999403;28;88611;-32
2022/12/04 02:46:26;;;;;;;59.70;33.63;;;0.60;99.90;;;;;;4990439;28;90190;-33
2022/12/04 02:48:55;;;;;;;58.35;37.00;;;0.60;99.90;;;;;;4999882;28;89505;-31
2022/12/04 02:51:24;;;;;;;52.17;33.33;;;0.60;99.90;;;;;;4999646;28;89382;-30
2022/12/04 02:53:56;;;;;;;56.15;35.85;;;0.60;99.90;;;;;;4999255;28;90288;-32
2022/12/04 02:56:27;;;;;;;61.00;40.92;;;0.60;99.90;;;;;;4999896;28;90317;-33
2022/12/04 02:59:00;;;;;;;60.83;36.65;;;0.60;99.90;;;;;;5000060;28;89466;-34
2022/12/04 03:01:33;;;;;;;65.65;39.88;;;0.60;99.90;;;;;;4999202;28;89504;-31
2022/12/04 03:04:08;;;;;;;59.90;35.10;;;0.60;99.90;;;;;;4999884;28;88269;-31
2022/12/04 03:06:38;;;;;;;65.53;39.63;;;0.70;99.90;;;;;;4999171;28;90556;-31
2022/12/04 03:09:16;;;;;;;64.10;38.53;;;0.70;99.90;;;;;;4998854;28;90037;-31
2022/12/04 03:11:45;;;;;;;62.70;36.30;;;0.60;99.90;;;;;;4999263;28;90103;-31
2022/12/04 03:14:20;;;;;;;66.28;40.17;;;0.50;99.90;;;;;;4998754;28;88953;-32
2022/12/04 03:16:49;;;;;;;57.30;36.13;;;0.50;99.90;;;;;;4999291;28;90403;-30
2022/12/04 03:19:21;;;;;;;54.90;39.80;;;0.50;99.90;;;;;;4999149;28;91664;-31
2022/12/04 03:21:55;;;;;;;59.10;38.30;;;0.40;99.90;;;;;;4999022;28;89586;-31
2022/12/04 03:24:32;;;;;;;70.97;42.53;;;0.50;99.90;;;;;;4999322;28;87690;-32
2022/12/04 03:27:16;;;;;;;61.13;40.05;;;0.50;99.90;;;;;;4998242;28;90920;-32
2022/12/04 03:30:00;;;;;;;67.35;42.72;;;0.50;99.90;;;;;;4999121;28;89633;-31
2022/12/04 03:32:55;;;;;;;72.75;43.17;;;0.40;99.90;;;;;;4985547;28;89642;-31
2022/12/04 03:35:20;;;;;;;65.88;41.53;;;0.40;99.90;;;;;;4999306;28;88431;-31
2022/12/04 03:38:02;;;;;;;54.75;41.15;;;0.40;99.90;;;;;;4999014;28;90058;-30
2022/12/04 03:40:37;;;;;;;65.22;40.47;;;0.30;99.90;;;;;;4998975;28;88549;-33
2022/12/04 03:43:14;;;;;;;63.58;42.15;;;0.30;99.90;;;;;;4998460;28;89923;-33
2022/12/04 03:46:02;;;;;;;59.78;39.92;;;0.30;99.90;;;;;;4998584;28;89013;-33
2022/12/04 03:48:44;;;;;;;67.28;43.08;;;0.40;99.90;;;;;;4996140;28;90188;-33
2022/12/04 03:51:18;;;;;;;68.82;41.30;;;0.40;99.90;;;;;;4998414;28;90765;-32
2022/12/04 03:53:53;;;;;;;57.85;38.72;;;0.40;99.90;;;;;;4998603;28;89707;-33
2022/12/04 03:56:25;;;;;;;67.55;42.95;;;0.30;99.90;;;;;;4998566;28;90435;-33
2022/12/04 03:58:56;;;;;;;64.85;41.78;;;0.40;99.90;;;;;;4998843;28;90374;-32
2022/12/04 04:01:29;;;;;;;42.22;28.63;;;0.40;99.90;;;;;;4998946;28;89834;-31
2022/12/04 04:03:58;;;;;;;61.67;39.63;;;0.40;99.90;;;;;;4997745;28;89505;-31
2022/12/04 04:06:31;;;;;;;69.72;44.63;;;0.40;99.90;;;;;;4998693;28;89609;-36
2022/12/04 04:09:03;;;;;;;66.72;39.90;;;0.40;99.90;;;;;;4998698;28;92122;-32
2022/12/04 04:12:00;;;;;;;68.20;43.08;;;0.40;99.90;;;;;;4997892;28;90332;-33
2022/12/04 04:25:52;;;;;;;68.20;45.07;;;0.40;99.90;;;;;;4998030;28;89257;-32
2022/12/04 04:28:36;;;;;;;61.22;36.70;;;0.30;99.90;;;;;;4998562;28;87628;-32
2022/12/04 04:31:16;;;;;;;57.53;37.92;;;0.40;99.90;;;;;;4998278;28;90488;-31
2022/12/04 04:34:03;;;;;;;68.75;42.90;;;0.30;99.90;;;;;;4997441;28;88947;-31
2022/12/04 04:36:45;;;;;;;61.45;39.75;;;0.30;99.90;;;;;;4997893;28;89596;-31
2022/12/04 04:39:24;;;;;;;61.67;39.97;;;0.30;99.90;;;;;;5001451;28;90559;-32
2022/12/04 04:42:08;;;;;;;68.22;40.33;;;0.30;99.90;;;;;;5001345;28;90147;-31
2022/12/04 04:44:43;;;;;;;64.15;38.60;;;0.30;99.90;;;;;;5001403;28;89670;-30
2022/12/04 04:47:17;;;;;;;70.90;40.08;;;0.30;99.90;;;;;;5002067;28;89882;-30
2022/12/04 04:49:46;;;;;;;59.03;40.65;;;0.30;99.90;;;;;;5001173;28;88600;-31
2022/12/04 04:52:12;;;;;;;62.05;42.72;;;0.40;99.90;;;;;;5000857;28;90177;-32
2022/12/04 04:54:38;;;;;;;59.92;42.33;;;0.30;99.90;;;;;;5001841;28;89725;-30
2022/12/04 04:57:04;;;;;;;64.35;39.70;;;0.30;99.90;;;;;;5001205;28;89477;-34
2022/12/04 04:59:29;;;;;;;51.97;31.27;;;0.30;99.90;;;;;;5001745;28;88997;-32
2022/12/04 05:01:55;;;;;;;61.78;40.50;;;0.30;99.90;;;;;;5001793;28;91139;-32
2022/12/04 05:04:21;;;;;;;65.50;42.60;;;0.30;99.90;;;;;;5001354;28;90313;-34
2022/12/04 05:06:47;;;;;;;54.55;30.13;;;0.30;99.90;;;;;;5001047;28;90470;-31
2022/12/04 05:09:13;;;;;;;60.15;37.10;;;0.30;99.90;;;;;;5001600;28;89226;-33
2022/12/04 05:11:39;;;;;;;58.70;33.92;;;0.30;99.90;;;;;;5001206;28;89384;-33
2022/12/04 05:14:05;;;;;;;56.53;36.17;;;0.30;99.90;;;;;;5001100;28;90963;-31
2022/12/04 05:16:31;;;;;;;61.88;34.25;;;0.40;99.90;;;;;;5001175;28;90155;-31
2022/12/04 05:21:41;;;;;;;54.67;35.83;;;0.40;99.90;;;;;;5000649;28;90201;-32
2022/12/04 05:24:07;;;;;;;61.13;38.17;;;0.30;99.90;;;;;;5001083;28;91156;-32
2022/12/04 05:26:33;;;;;;;56.00;34.47;;;0.30;99.90;;;;;;5000826;28;89891;-32
2022/12/04 05:28:59;;;;;;;64.00;35.72;;;0.40;99.90;;;;;;5000786;28;90210;-34
2022/12/04 05:31:24;;;;;;;51.95;32.72;;;0.30;99.90;;;;;;5000777;28;90555;-32
2022/12/04 05:33:50;;;;;;;54.88;33.22;;;0.40;99.90;;;;;;5001046;28;89498;-31
2022/12/04 05:36:15;;;;;;;63.88;40.05;;;0.50;99.90;;;;;;5001217;28;89697;-32
2022/12/04 05:38:41;;;;;;;58.75;37.72;;;0.30;99.90;;;;;;5000829;28;89392;-31
2022/12/04 05:41:07;;;;;;;64.30;38.88;;;0.40;99.90;;;;;;5000855;28;89992;-33
2022/12/04 05:43:33;;;;;;;54.60;30.00;;;0.40;99.90;;;;;;5000226;28;88714;-32
2022/12/04 05:46:04;;;;;;;57.22;34.95;;;0.40;99.90;;;;;;5001062;28;89222;-30
2022/12/04 05:48:30;;;;;;;57.85;38.63;;;0.50;99.90;;;;;;4999834;28;88145;-30
2022/12/04 05:50:55;;;;;;;67.60;39.88;;;0.40;99.90;;;;;;5001519;28;89950;-32
2022/12/04 05:53:21;;;;;;;68.00;41.13;;;0.40;99.90;;;;;;5000402;28;90867;-32
2022/12/04 05:55:57;;;;;;;65.28;38.70;;;0.40;99.90;;;;;;5000458;28;90482;-32
2022/12/04 05:58:24;;;;;;;69.80;41.80;;;0.40;99.90;;;;;;5000658;28;90103;-31
2022/12/04 06:00:50;;;;;;;59.75;36.42;;;0.40;99.90;;;;;;5000642;28;90970;-29
2022/12/04 06:03:16;;;;;;;60.97;34.88;;;0.40;99.90;;;;;;5000184;28;89041;-33
2022/12/04 06:05:41;;;;;;;59.35;39.60;;;0.40;99.90;;;;;;5000542;28;89527;-31
2022/12/04 06:08:07;;;;;;;56.22;37.90;;;0.40;99.90;;;;;;4999675;28;88710;-30
2022/12/04 06:10:33;;;;;;;59.67;40.40;;;0.40;99.90;;;;;;5000046;28;90421;-33
2022/12/04 06:12:58;;;;;;;59.47;36.40;;;0.40;99.90;;;;;;4999936;28;89649;-32
2022/12/04 06:15:24;;;;;;;69.20;41.47;;;0.40;99.90;;;;;;5000448;28;89895;-34
2022/12/04 06:17:50;;;;;;;70.70;44.58;;;0.40;99.90;;;;;;4999926;28;90108;-30
2022/12/04 06:20:15;;;;;;;69.22;42.63;;;0.40;99.90;;;;;;4999841;28;90125;-35
2022/12/04 06:22:41;;;;;;;62.35;35.65;;;0.40;99.90;;;;;;4999865;28;90190;-31
2022/12/04 06:25:07;;;;;;;67.00;39.88;;;0.30;99.90;;;;;;5000212;28;89555;-30
2022/12/04 06:27:33;;;;;;;49.00;30.63;;;0.30;99.90;;;;;;5000145;28;89929;-32
2022/12/04 06:29:58;;;;;;;68.93;41.03;;;0.40;99.90;;;;;;5000438;28;89281;-30
2022/12/04 06:32:24;;;;;;;55.28;39.15;;;0.40;99.90;;;;;;4999279;28;89677;-33
2022/12/04 06:34:53;;;;;;;65.18;40.50;;;0.30;99.90;;;;;;5000353;28;89682;-31
2022/12/04 06:37:21;;;;;;;58.00;39.90;;;0.20;99.90;;;;;;5000368;28;89357;-30
2022/12/04 06:39:46;;;;;;;72.07;41.75;;;0.20;99.90;;;;;;4999934;28;90316;-31
2022/12/04 06:42:12;;;;;;;62.92;42.10;;;0.20;99.90;;;;;;4999090;28;90678;-34
2022/12/04 06:44:37;;;;;;;63.20;39.80;;;0.20;99.90;;;;;;4999669;28;90593;-32
2022/12/04 06:47:04;;;;;;;68.38;42.95;;;0.20;99.90;;;;;;5000024;28;89957;-34
2022/12/04 06:49:29;;;;;;;58.20;39.53;;;0.20;99.90;;;;;;5000073;28;89733;-33
2022/12/04 06:51:55;;;;;;;62.38;41.67;;;0.30;99.90;;;;;;4999772;28;90016;-31
2022/12/04 06:54:21;;;;;;;80.97;46.22;;;0.20;99.90;;;;;;4999480;28;89377;-31
2022/12/04 06:56:48;;;;;;;68.47;45.33;;;0.20;99.90;;;;;;4999470;28;90023;-31
2022/12/04 06:59:13;;;;;;;62.80;35.63;;;0.20;99.90;;;;;;4999541;28;90138;-31
2022/12/04 07:01:39;;;;;;;66.00;41.33;;;0.30;99.90;;;;;;4999793;28;90194;-34
2022/12/04 07:04:04;;;;;;;69.80;42.58;;;0.20;99.90;;;;;;4999323;28;89585;-33
2022/12/04 07:06:32;;;;;;;62.88;43.60;;;0.30;99.90;;;;;;4999863;28;88803;-32
2022/12/04 07:09:11;;;;;;;63.00;42.50;;;0.40;99.90;;;;;;5000027;28;90221;-33
2022/12/04 07:11:37;;;;;;;62.63;37.60;;;0.30;99.90;;;;;;4999079;28;89956;-32
2022/12/04 07:14:03;;;;;;;60.53;38.53;;;0.40;99.90;;;;;;4999135;28;90591;-31
2022/12/04 07:16:29;;;;;;;67.22;41.70;;;0.30;99.90;;;;;;4999589;28;89417;-30
2022/12/04 07:18:56;;;;;;;64.22;37.45;;;0.40;99.90;;;;;;4999035;28;90525;-31
2022/12/04 07:21:25;;;;;;;63.60;41.15;;;0.40;99.90;;;;;;4998999;28;87952;-30
2022/12/04 07:23:52;;;;;;;72.45;44.17;;;0.30;99.90;;;;;;4998847;28;89607;-32
2022/12/04 07:26:18;;;;;;;69.97;43.53;;;0.40;99.90;;;;;;4999443;28;88737;-30
2022/12/04 07:28:46;;;;;;;71.43;43.50;;;0.40;99.90;;;;;;4981026;28;90077;-31
2022/12/04 07:31:14;;;;;;;65.18;39.65;;;0.30;99.90;;;;;;4985018;28;90684;-31
2022/12/04 07:33:41;;;;;;;71.57;39.83;;;0.30;99.90;;;;;;4997844;28;90548;-33
2022/12/04 07:36:09;;;;;;;63.50;43.83;;;0.30;99.90;;;;;;4999146;28;88907;-32
2022/12/04 07:38:35;;;;;;;58.25;36.80;;;0.40;99.90;;;;;;4998946;28;90186;-32
2022/12/04 07:41:03;;;;;;;62.55;38.85;;;0.30;99.90;;;;;;4999238;28;89514;-33
2022/12/04 07:43:29;;;;;;;64.60;43.37;;;0.30;99.90;;;;;;4998357;28;90192;-33
2022/12/04 07:45:55;;;;;;;75.72;47.03;;;0.30;99.90;;;;;;4999363;28;89199;-30
2022/12/04 07:48:20;;;;;;;63.90;44.33;;;0.30;99.90;;;;;;4998794;28;89484;-32
2022/12/04 07:50:46;;;;;;;62.08;39.28;;;0.40;99.90;;;;;;4999084;28;90209;-34
2022/12/04 07:53:12;;;;;;;68.90;43.67;;;0.40;99.90;;;;;;4998772;28;89990;-33
2022/12/04 07:55:38;;;;;;;70.90;41.67;;;0.40;99.90;;;;;;4998045;28;90040;-34
2022/12/04 07:58:03;;;;;;;64.72;40.70;;;0.40;99.90;;;;;;4999002;28;90149;-30
2022/12/04 08:00:29;;;;;;;69.03;41.55;;;0.40;99.90;;;;;;4997779;28;90240;-29
2022/12/04 08:02:54;;;;;;;61.20;42.22;;;0.40;99.90;;;;;;4998846;28;90060;-34
2022/12/04 08:05:20;;;;;;;66.65;44.58;;;0.50;99.90;;;;;;4998530;28;88143;-32
2022/12/04 08:07:45;;;;;;;69.93;43.97;;;0.40;99.90;;;;;;4999444;28;90177;-33
2022/12/04 08:10:11;;;;;;;69.25;44.45;;;0.50;99.90;;;;;;5009601;28;90153;-32
2022/12/04 08:12:37;;;;;;;62.03;40.60;;;0.50;99.90;;;;;;5003959;28;89211;-32
2022/12/04 08:15:04;;;;;;;68.43;39.83;;;0.60;99.90;;;;;;5011164;28;88300;-32
2022/12/04 08:17:29;;;;;;;69.82;46.33;;;0.60;99.90;;;;;;4981353;28;91327;-32
2022/12/04 08:19:55;;;;;;;69.82;40.53;;;0.50;99.90;;;;;;5008395;28;90144;-31
2022/12/04 08:22:21;;;;;;;64.63;38.38;;;0.50;99.90;;;;;;5007396;28;90500;-28
2022/12/04 08:24:47;;;;;;;78.85;43.65;;;0.60;99.90;;;;;;5006523;28;89468;-30
2022/12/04 08:27:12;;;;;;;69.90;46.85;;;0.60;99.90;;;;;;5002412;28;90386;-31
2022/12/04 08:29:38;;;;;;;55.13;40.15;;;0.60;99.90;;;;;;4993490;28;89691;-31
2022/12/04 08:32:04;;;;;;;66.13;42.42;;;0.60;99.90;;;;;;4998742;28;89549;-30
2022/12/04 08:34:30;;;;;;;69.30;40.42;;;0.60;99.90;;;;;;4996105;28;89325;-30
2022/12/04 08:36:55;;;;;;;71.10;44.63;;;0.60;99.90;;;;;;5000727;28;90584;-33
2022/12/04 08:39:21;;;;;;;71.05;44.63;;;0.60;99.90;;;;;;5005447;28;90215;-31
2022/12/04 08:41:46;;;;;;;70.35;43.78;;;0.60;99.90;;;;;;4990173;28;90110;-30
2022/12/04 08:44:12;;;;;;;75.22;45.58;;;0.70;99.90;;;;;;5005207;28;88410;-32
2022/12/04 08:46:38;;;;;;;65.93;41.50;;;0.70;99.90;;;;;;5005395;28;90291;-29
2022/12/04 08:49:04;;;;;;;70.30;42.60;;;0.70;99.90;;;;;;5010749;28;90023;-31
2022/12/04 08:51:32;;;;;;;66.57;38.72;;;0.70;99.90;;;;;;4992670;28;90292;-30
2022/12/04 08:54:01;;;;;;;68.80;43.85;;;0.70;99.90;;;;;;5001959;28;87760;-32
2022/12/04 08:56:28;;;;;;;68.53;45.35;;;0.80;99.90;;;;;;5001716;28;92729;-30
2022/12/04 08:58:55;;;;;;;65.00;42.63;;;0.80;99.90;;;;;;4997211;28;89554;-32
2022/12/04 09:01:21;;;;;;;65.90;43.03;;;0.80;99.90;;;;;;4998264;28;89697;-32
2022/12/04 09:03:47;;;;;;;75.57;47.28;;;0.90;99.90;;;;;;4992981;28;89178;-33
2022/12/04 09:06:14;;;;;;;75.20;45.28;;;0.90;99.90;;;;;;4994735;28;89024;-32
2022/12/04 09:08:40;;;;;;;65.70;39.50;;;0.90;99.90;;;;;;5007929;28;90549;-32
2022/12/04 09:11:11;;;;;;;69.72;45.30;;;0.90;99.90;;;;;;5014548;28;90721;-30
2022/12/04 09:13:38;;;;;;;72.22;46.42;;;0.90;99.90;;;;;;5014752;28;88815;-31
2022/12/04 09:16:10;;;;;;;58.60;39.05;;;0.90;99.90;;;;;;4999270;28;90491;-31
2022/12/04 09:18:36;;;;;;;74.10;42.35;;;0.90;99.90;;;;;;5014275;28;89418;-32
2022/12/04 09:21:05;;;;;;;62.08;41.65;;;1.00;99.90;;;;;;5038540;22;89491;-30
2022/12/04 09:23:32;;;;;;;61.30;42.58;;;0.90;99.90;;;;;;5014352;27;88302;-30
2022/12/04 09:25:58;;;;;;;62.70;40.27;;;0.90;99.90;;;;;;5017237;28;90011;-32
2022/12/04 09:28:24;;;;;;;60.90;39.35;;;1.00;99.90;;;;;;5017078;28;89804;-33
2022/12/04 09:31:01;;;;;;;59.50;40.25;;;1.00;99.90;;;;;;5006132;28;89882;-34
2022/12/04 09:33:27;;;;;;;56.65;36.40;;;1.00;99.90;;;;;;4997736;28;90527;-30
2022/12/04 09:35:53;;;;;;;64.45;45.13;;;1.00;99.90;;;;;;4998137;28;90519;-30
2022/12/04 09:38:19;;;;;;;63.53;42.10;;;1.10;99.90;;;;;;4998972;28;89851;-31
2022/12/04 09:41:16;;;;;;;67.07;38.95;;;1.00;99.90;;;;;;4999057;28;89994;-31
2022/12/04 09:43:56;;;;;;;49.63;31.67;;;1.20;99.90;;;;;;4998100;28;89654;-32
2022/12/04 09:46:35;;;;;;;59.30;33.30;;;1.20;99.90;;;;;;4998843;28;90212;-32
2022/12/04 09:49:05;;;;;;;58.65;35.10;;;1.10;99.90;;;;;;4980639;28;89937;-31
2022/12/04 09:51:33;;;;;;;51.42;36.15;;;1.20;99.90;;;;;;4998082;28;89485;-32
2022/12/04 09:54:06;;;;;;;58.38;38.25;;;1.20;99.90;;;;;;4998452;28;88121;-33
2022/12/04 09:56:32;;;;;;;55.17;34.70;;;1.20;99.90;;;;;;4998340;28;89666;-30
2022/12/04 09:59:07;;;;;;;66.47;42.95;;;1.20;99.90;;;;;;4997796;28;90617;-31
2022/12/04 10:01:45;;;;;;;61.08;40.95;;;1.30;99.90;;;;;;4997533;28;89946;-31
2022/12/04 10:04:11;;;;;;;45.20;24.33;;;1.30;99.90;;;;;;4997955;28;89322;-31
2022/12/04 10:07:18;;;;;;;56.70;39.95;;;1.30;99.90;;;;;;4979565;28;90000;-31
2022/12/04 10:09:51;;;;;;;52.03;35.50;;;1.30;99.90;;;;;;4996881;28;89660;-31
2022/12/04 10:12:22;;;;;;;53.40;38.58;;;1.40;99.90;;;;;;4997763;28;89909;-33
2022/12/04 10:15:14;;;;;;;47.83;33.47;;;1.40;99.90;;;;;;4996880;28;89338;-33
2022/12/04 10:17:49;;;;;;;57.45;31.95;;;1.40;99.90;;;;;;4997777;28;88669;-31
2022/12/04 10:20:45;;;;;;;48.22;34.90;;;1.50;99.90;;;;;;4996978;28;89781;-32
2022/12/04 10:23:32;;;;;;;51.53;34.63;;;1.50;99.90;;;;;;4997025;28;89319;-33
2022/12/04 10:25:59;;;;;;;54.08;36.50;;;1.50;99.90;;;;;;4997539;28;89424;-31
2022/12/04 10:28:42;;;;;;;56.63;36.20;;;1.50;99.90;;;;;;4997359;28;90444;-31
2022/12/04 10:31:13;;;;;;;48.65;35.28;;;1.60;99.90;;;;;;4997422;28;90427;-31
2022/12/04 10:33:53;;;;;;;59.58;37.80;;;1.60;99.90;;;;;;4997181;28;89752;-33
2022/12/04 10:36:22;;;;;;;54.92;33.40;;;1.60;99.90;;;;;;4996469;28;89594;-32
2022/12/04 10:39:03;;;;;;;51.45;34.00;;;1.60;99.90;;;;;;4997019;28;91046;-32
2022/12/04 10:41:47;;;;;;;52.45;33.58;;;1.60;99.90;;;;;;4997001;28;89419;-32
2022/12/04 10:44:15;;;;;;;51.03;31.60;;;1.70;99.90;;;;;;4997725;28;89776;-32
2022/12/04 10:46:41;;;;;;;50.08;32.25;;;1.80;99.90;;;;;;4997728;28;89432;-33
2022/12/04 10:49:21;;;;;;;44.17;29.58;;;1.80;99.90;;;;;;4996648;28;90655;-31
2022/12/04 10:51:48;;;;;;;48.00;33.97;;;1.90;99.90;;;;;;4996087;28;91129;-33
2022/12/04 10:54:38;;;;;;;45.25;30.05;;;1.90;99.90;;;;;;4997137;28;90288;-31
2022/12/04 10:57:09;;;;;;;42.42;25.75;;;1.90;99.90;;;;;;4997117;28;89155;-30
2022/12/04 10:59:46;;;;;;;47.13;30.83;;;2.00;99.90;;;;;;4996727;28;90387;-31
2022/12/04 11:02:31;;;;;;;35.72;24.45;;;2.00;99.90;;;;;;4996147;28;89673;-31
2022/12/04 11:04:57;;;;;;;40.38;26.08;;;2.10;99.90;;;;;;4997145;28;89270;-31
2022/12/04 11:07:25;;;;;;;36.90;26.15;;;2.10;99.90;;;;;;4997447;28;89840;-30
2022/12/04 11:10:02;;;;;;;41.15;28.27;;;2.20;99.90;;;;;;4996176;28;90413;-32
2022/12/04 11:12:28;;;;;;;42.20;27.10;;;2.20;99.90;;;;;;4995847;28;90998;-31
2022/12/04 11:15:12;;;;;;;38.78;27.15;;;2.20;99.90;;;;;;4996772;28;89571;-30
2022/12/04 11:17:38;;;;;;;41.17;26.60;;;2.20;99.90;;;;;;4996159;28;89210;-31
2022/12/04 11:20:26;;;;;;;36.53;25.15;;;2.20;99.90;;;;;;4996386;28;90153;-34
2022/12/04 11:22:55;;;;;;;41.37;29.13;;;2.20;99.90;;;;;;4996927;28;89066;-31
2022/12/04 11:25:23;;;;;;;41.00;26.23;;;2.10;99.90;;;;;;4996546;28;89992;-30
2022/12/04 11:27:59;;;;;;;44.25;28.90;;;2.10;99.90;;;;;;4996700;28;88471;-32
2022/12/04 11:30:34;;;;;;;41.80;28.45;;;2.10;99.90;;;;;;5001770;28;90253;-32
2022/12/04 11:33:01;;;;;;;44.45;28.63;;;2.10;99.90;;;;;;5005352;28;89764;-30
2022/12/04 11:35:28;;;;;;;42.65;27.75;;;2.10;99.90;;;;;;5010078;28;89336;-33
2022/12/04 11:38:07;;;;;;;36.72;27.10;;;2.10;99.90;;;;;;5006435;28;89408;-31
2022/12/04 11:40:33;;;;;;;40.65;28.20;;;2.10;99.90;;;;;;5009712;28;90213;-31
2022/12/04 11:43:14;;;;;;;51.05;28.40;;;2.10;99.90;;;;;;5005687;28;90791;-31
2022/12/04 11:45:51;;;;;;;36.72;24.85;;;2.10;99.90;;;;;;5009919;28;91458;-29
2022/12/04 11:48:17;;;;;;;42.55;28.67;;;2.10;99.90;;;;;;5004287;28;89457;-30
2022/12/04 11:51:04;;;;;;;51.30;29.80;;;2.20;99.90;;;;;;4997861;28;90646;-31
2022/12/04 11:53:46;;;;;;;43.28;30.23;;;2.20;99.90;;;;;;4995825;28;89596;-29
2022/12/04 11:56:23;;;;;;;50.40;28.67;;;2.10;99.90;;;;;;4983788;28;89996;-29
2022/12/04 11:58:57;;;;;;;40.05;27.27;;;2.10;99.90;;;;;;4996220;28;89582;-31
2022/12/04 12:01:23;;;;;;;39.55;27.38;;;2.20;99.90;;;;;;4996737;28;89202;-30
2022/12/04 12:04:16;;;;;;;48.10;30.52;;;2.20;99.90;;;;;;4997056;28;88281;-30
2022/12/04 12:07:05;;;;;;;35.70;22.10;;;2.20;99.90;;;;;;4995943;28;89388;-31
2022/12/04 12:09:50;;;;;;;37.85;21.23;;;2.30;99.90;;;;;;4994958;28;89592;-33
2022/12/04 12:12:46;;;;;;;44.63;28.60;;;2.20;99.90;;;;;;4996233;28;90060;-33
2022/12/04 12:15:24;;;;;;;40.90;26.33;;;2.30;99.90;;;;;;4998051;28;89866;-31
2022/12/04 12:18:25;;;;;;;43.47;29.53;;;2.20;99.90;;;;;;4996660;28;89545;-32
2022/12/04 12:21:22;;;;;;;42.83;26.05;;;2.20;99.90;;;;;;4995696;28;89731;-34
2022/12/04 12:24:24;;;;;;;40.38;25.50;;;2.30;99.90;;;;;;4998192;28;90253;-30
2022/12/04 12:27:00;;;;;;;40.15;24.33;;;2.30;99.90;;;;;;4998673;28;89532;-31
2022/12/04 12:29:52;;;;;;;39.33;24.90;;;2.30;99.90;;;;;;4998672;28;89831;-33
2022/12/04 12:32:26;;;;;;;43.28;29.25;;;2.30;99.90;;;;;;4998056;28;88160;-31
2022/12/04 12:34:52;;;;;;;39.78;25.48;;;2.30;99.90;;;;;;4979744;28;90401;-31
2022/12/04 12:37:45;;;;;;;27.25;19.17;;;2.30;99.90;;;;;;5003558;28;89723;-30
2022/12/04 12:40:22;;;;;;;42.97;26.77;;;2.40;99.90;;;;;;5001814;28;90632;-33
2022/12/04 12:43:04;;;;;;;40.05;26.65;;;2.40;99.90;;;;;;5012029;28;88266;-32
2022/12/04 12:45:43;;;;;;;33.78;23.50;;;2.40;99.90;;;;;;5013796;28;90331;-32
2022/12/04 12:48:21;;;;;;;32.65;23.80;;;2.40;99.90;;;;;;5005020;28;89805;-31
2022/12/04 12:50:53;;;;;;;32.28;22.05;;;2.30;99.90;;;;;;4994709;28;89663;-33
2022/12/04 12:53:24;;;;;;;40.75;27.27;;;2.40;99.90;;;;;;5005783;28;88940;-33
2022/12/04 12:55:59;;;;;;;45.85;26.58;;;2.30;99.90;;;;;;5011622;28;90262;-33
2022/12/04 12:58:41;;;;;;;37.35;24.60;;;2.40;99.90;;;;;;4997069;28;89843;-30
2022/12/04 13:01:23;;;;;;;38.53;26.20;;;2.40;99.90;;;;;;4999717;28;89683;-32
2022/12/04 13:04:08;;;;;;;35.05;24.48;;;2.40;99.90;;;;;;4998372;28;89164;-32
2022/12/04 13:06:42;;;;;;;39.45;26.67;;;2.40;99.90;;;;;;4997713;28;91590;-31
2022/12/04 13:09:28;;;;;;;38.95;25.40;;;2.50;99.90;;;;;;4985203;28;89482;-33
2022/12/04 13:12:02;;;;;;;40.42;25.33;;;2.50;99.90;;;;;;4999051;28;90276;-30